Time;durP1;ratioP1;P1;durP2;ratioP2;P2;SDS_P1;SDS_P2;PMS_P1;PMS_P2;Temp;Humidity;BMP_temperature;BMP_pressure;BME280_temperature;BME280_humidity;BME280_pressure;Samples;Min_cycle;Max_cycle;Signal;HPM_P1;HPM_P2
2022/03/07 00:01:26;;;;;;;8.85;6.20;;;;;;;4.15;52.29;102694.47;6206194;23;20016;-66
2022/03/07 00:03:53;;;;;;;10.70;5.25;;;;;;;4.25;52.43;102696.00;6205033;23;20012;-67
2022/03/07 00:06:18;;;;;;;8.95;5.85;;;;;;;4.33;51.85;102686.06;6203367;23;20009;-67
2022/03/07 00:08:43;;;;;;;9.82;5.93;;;;;;;4.29;51.45;102677.09;6203733;23;20489;-66
2022/03/07 00:11:15;;;;;;;8.85;5.78;;;;;;;4.29;52.18;102686.66;6203584;23;20015;-67
2022/03/07 00:13:41;;;;;;;8.40;5.50;;;;;;;4.29;51.73;102682.31;6203760;23;20227;-66
2022/03/07 00:16:06;;;;;;;10.40;5.60;;;;;;;4.21;51.83;102681.81;6203529;23;20302;-67
2022/03/07 00:18:31;;;;;;;10.30;5.53;;;;;;;4.12;52.36;102678.59;6203031;23;20278;-67
2022/03/07 00:20:57;;;;;;;11.38;6.15;;;;;;;4.09;52.72;102680.09;6202881;23;20323;-67
2022/03/07 00:23:22;;;;;;;12.80;6.35;;;;;;;3.98;52.43;102682.91;6201788;23;20012;-67
2022/03/07 00:25:48;;;;;;;10.65;6.53;;;;;;;3.85;53.04;102685.47;6204595;23;20125;-68
2022/03/07 00:28:16;;;;;;;9.48;6.47;;;;;;;3.72;53.36;102675.00;6210941;23;20136;-67
2022/03/07 00:30:41;;;;;;;10.70;6.43;;;;;;;3.56;53.94;102686.13;6210051;23;20275;-67
2022/03/07 00:33:07;;;;;;;9.68;6.85;;;;;;;3.51;53.71;102682.28;6202325;23;20005;-67
2022/03/07 00:35:32;;;;;;;13.45;6.65;;;;;;;3.50;53.46;102686.59;6202988;23;20047;-67
2022/03/07 00:37:58;;;;;;;10.90;6.13;;;;;;;3.46;53.75;102687.19;6203241;23;20001;-67
2022/03/07 00:40:23;;;;;;;13.55;6.45;;;;;;;3.52;53.78;102689.34;6202230;23;20005;-67
2022/03/07 00:42:48;;;;;;;11.27;6.10;;;;;;;3.60;53.37;102693.38;6203233;23;20093;-67
2022/03/07 00:45:14;;;;;;;8.30;5.82;;;;;;;3.63;53.50;102698.81;6202056;23;20467;-67
2022/03/07 00:47:42;;;;;;;10.68;5.82;;;;;;;3.61;53.63;102699.53;6202879;23;20088;-67
2022/03/07 00:50:09;;;;;;;10.70;6.35;;;;;;;3.56;52.99;102690.47;6202934;23;20012;-66
2022/03/07 00:52:34;;;;;;;9.25;6.20;;;;;;;3.44;53.77;102683.56;6203000;23;20008;-67
2022/03/07 00:55:00;;;;;;;11.15;6.53;;;;;;;3.32;54.18;102684.44;6201195;23;20063;-67
2022/03/07 00:57:25;;;;;;;12.30;6.13;;;;;;;3.25;54.23;102683.09;6202752;23;20004;-67
2022/03/07 00:59:50;;;;;;;9.85;5.85;;;;;;;3.23;54.39;102689.91;6203626;23;20001;-67
2022/03/07 01:02:16;;;;;;;11.00;6.40;;;;;;;3.16;54.53;102693.78;6201153;23;20039;-67
2022/03/07 01:04:41;;;;;;;9.60;6.07;;;;;;;3.14;54.57;102695.41;6202370;23;20004;-67
2022/03/07 01:07:09;;;;;;;9.63;6.32;;;;;;;3.08;55.13;102697.56;6199681;23;20001;-68
2022/03/07 01:09:35;;;;;;;11.65;6.05;;;;;;;2.92;55.36;102689.47;6201318;23;20139;-67
2022/03/07 01:12:00;;;;;;;10.85;6.05;;;;;;;2.94;55.73;102700.91;6200518;23;20020;-67
2022/03/07 01:14:26;;;;;;;11.00;6.22;;;;;;;2.89;55.71;102697.97;6203427;23;20001;-66
2022/03/07 01:16:52;;;;;;;13.63;6.22;;;;;;;2.92;55.97;102697.31;6201210;23;20004;-67
2022/03/07 01:19:18;;;;;;;9.73;6.00;;;;;;;2.99;55.22;102700.44;6200801;23;20014;-67
2022/03/07 01:21:44;;;;;;;10.27;5.78;;;;;;;3.01;55.41;102708.41;6201981;23;20382;-67
2022/03/07 01:24:10;;;;;;;11.63;6.30;;;;;;;2.94;55.76;102698.31;6202623;23;20256;-67
2022/03/07 01:26:37;;;;;;;11.57;6.60;;;;;;;2.82;56.16;102692.19;6203510;23;20005;-67
2022/03/07 01:29:08;;;;;;;8.90;6.05;;;;;;;2.69;56.56;102695.63;6202713;23;20008;-67
2022/03/07 01:31:33;;;;;;;10.45;6.15;;;;;;;2.76;56.21;102701.41;6202505;23;20083;-66
2022/03/07 01:33:59;;;;;;;11.55;6.18;;;;;;;2.78;55.85;102700.59;6203734;23;20090;-66
2022/03/07 01:36:24;;;;;;;8.20;6.05;;;;;;;2.77;55.83;102689.25;6202238;23;20444;-66
2022/03/07 01:38:49;;;;;;;10.05;6.00;;;;;;;2.82;55.84;102698.31;6200761;23;20066;-66
2022/03/07 01:41:15;;;;;;;11.75;6.18;;;;;;;2.85;55.59;102693.34;6201750;23;20004;-67
2022/03/07 01:43:40;;;;;;;10.52;6.15;;;;;;;2.88;55.21;102688.34;6201235;23;20016;-67
2022/03/07 01:46:08;;;;;;;10.30;5.80;;;;;;;2.90;55.27;102691.94;6202619;23;20009;-67
2022/03/07 01:48:35;;;;;;;9.55;6.22;;;;;;;2.91;55.65;102692.84;6203012;23;20636;-67
2022/03/07 01:51:01;;;;;;;8.70;6.00;;;;;;;2.87;55.33;102693.44;6202626;23;20087;-68
2022/03/07 01:53:28;;;;;;;9.70;5.45;;;;;;;2.86;55.43;102689.91;6203109;23;20039;-67
2022/03/07 01:55:56;;;;;;;9.48;5.65;;;;;;;2.85;55.27;102688.13;6203519;23;20004;-68
2022/03/07 01:58:23;;;;;;;9.27;5.80;;;;;;;2.85;55.32;102688.13;6203328;23;20007;-67
2022/03/07 02:00:49;;;;;;;10.52;5.95;;;;;;;2.79;55.69;102692.91;6202543;23;20011;-69
2022/03/07 02:03:29;;;;;;;9.43;5.88;;;;;;;2.71;56.15;102694.97;6202590;23;20008;-67
2022/03/07 02:05:55;;;;;;;9.00;5.85;;;;;;;2.47;56.75;102685.34;6202742;23;20030;-67
2022/03/07 02:08:21;;;;;;;12.40;6.10;;;;;;;2.40;57.03;102683.06;6203233;23;20005;-67
2022/03/07 02:10:47;;;;;;;9.05;6.10;;;;;;;2.21;57.98;102681.72;6201978;23;20207;-67
2022/03/07 02:13:14;;;;;;;9.32;6.18;;;;;;;2.09;57.90;102680.81;6203210;23;20001;-66
2022/03/07 02:15:39;;;;;;;8.95;5.78;;;;;;;2.08;58.27;102685.94;6201519;23;20091;-67
2022/03/07 02:18:05;;;;;;;9.32;6.13;;;;;;;2.00;58.75;102681.03;6202031;23;20000;-66
2022/03/07 02:20:31;;;;;;;9.75;6.50;;;;;;;2.00;58.47;102674.91;6202557;23;20008;-67
2022/03/07 02:22:58;;;;;;;10.75;6.47;;;;;;;1.94;58.76;102672.78;6202587;23;20035;-66
2022/03/07 02:25:23;;;;;;;9.32;5.82;;;;;;;1.98;58.29;102671.31;6201239;23;20009;-67
2022/03/07 02:27:54;;;;;;;10.35;6.45;;;;;;;1.94;59.32;102671.88;6205392;23;20011;-66
2022/03/07 02:30:19;;;;;;;10.50;6.30;;;;;;;2.05;58.62;102673.56;6204287;23;20009;-67
2022/03/07 02:32:48;;;;;;;10.70;6.57;;;;;;;2.00;58.78;102661.88;6203353;23;20088;-67
2022/03/07 02:35:14;;;;;;;12.38;6.57;;;;;;;1.92;59.32;102666.53;6201804;23;20136;-68
2022/03/07 02:37:42;;;;;;;9.50;6.55;;;;;;;1.84;59.32;102667.69;6202697;23;20013;-66
2022/03/07 02:40:08;;;;;;;11.73;6.78;;;;;;;1.79;59.96;102663.78;6202160;23;20005;-66
2022/03/07 02:42:33;;;;;;;8.32;6.30;;;;;;;1.74;59.79;102670.34;6201950;23;20453;-67
2022/03/07 02:44:59;;;;;;;11.63;6.97;;;;;;;1.71;59.36;102673.66;6201736;23;20031;-67
2022/03/07 02:47:24;;;;;;;12.73;6.70;;;;;;;1.65;60.29;102673.19;6202754;23;20012;-67
2022/03/07 02:49:50;;;;;;;10.52;6.57;;;;;;;1.65;60.09;102672.28;6201947;23;20080;-66
2022/03/07 02:52:16;;;;;;;13.95;6.60;;;;;;;1.61;59.75;102660.69;6202254;23;20084;-67
2022/03/07 02:54:41;;;;;;;13.10;6.90;;;;;;;1.69;60.53;102669.09;6202295;23;20403;-67
2022/03/07 02:57:08;;;;;;;10.43;6.80;;;;;;;1.75;59.68;102670.47;6202077;23;20357;-67
2022/03/07 02:59:34;;;;;;;10.43;7.20;;;;;;;1.73;59.63;102672.06;6204228;23;20004;-66
2022/03/07 03:02:00;;;;;;;10.43;6.72;;;;;;;1.72;59.97;102672.88;6202368;23;20005;-66
2022/03/07 03:04:25;;;;;;;10.70;6.65;;;;;;;1.76;59.69;102668.78;6199640;23;20341;-66
2022/03/07 03:06:50;;;;;;;13.95;7.03;;;;;;;1.76;59.91;102671.41;6202066;23;20000;-66
2022/03/07 03:09:16;;;;;;;11.13;6.70;;;;;;;1.77;59.75;102659.28;6201066;23;20096;-66
2022/03/07 03:11:41;;;;;;;12.25;6.90;;;;;;;1.85;59.46;102671.19;6200828;23;20191;-66
2022/03/07 03:14:07;;;;;;;10.35;6.88;;;;;;;1.87;59.29;102669.59;6200830;23;20167;-66
2022/03/07 03:16:33;;;;;;;8.90;6.50;;;;;;;1.90;59.68;102662.00;6202217;23;20087;-66
2022/03/07 03:18:58;;;;;;;10.73;6.72;;;;;;;1.87;59.50;102674.78;6201540;23;20410;-67
2022/03/07 03:21:24;;;;;;;11.90;7.13;;;;;;;1.83;59.71;102671.03;6202771;23;20175;-66
2022/03/07 03:23:49;;;;;;;10.05;6.35;;;;;;;1.83;59.22;102670.16;6202155;23;20074;-66
2022/03/07 03:26:15;;;;;;;8.77;6.25;;;;;;;1.84;59.08;102675.50;6202165;23;20009;-66
2022/03/07 03:28:41;;;;;;;9.27;6.45;;;;;;;1.81;59.89;102666.53;6202894;23;20218;-67
2022/03/07 03:31:08;;;;;;;13.40;6.95;;;;;;;1.79;59.68;102669.00;6203086;23;20008;-66
2022/03/07 03:33:35;;;;;;;11.55;7.20;;;;;;;1.76;59.69;102674.00;6204832;23;20431;-66
2022/03/07 03:36:01;;;;;;;11.77;7.00;;;;;;;1.70;59.72;102660.50;6210712;23;20011;-66
2022/03/07 03:38:27;;;;;;;10.85;6.40;;;;;;;1.72;59.85;102678.06;6207047;23;20386;-67
2022/03/07 03:40:53;;;;;;;10.25;6.53;;;;;;;1.69;60.17;102670.00;6202933;23;20004;-66
2022/03/07 03:43:18;;;;;;;10.60;7.00;;;;;;;1.69;60.30;102671.72;6203151;23;20343;-67
2022/03/07 03:45:43;;;;;;;10.40;6.03;;;;;;;1.68;59.80;102677.72;6202490;23;20254;-66
2022/03/07 03:48:09;;;;;;;9.50;6.32;;;;;;;1.70;59.64;102679.63;6203023;23;20000;-66
2022/03/07 03:50:35;;;;;;;10.55;6.75;;;;;;;1.89;59.58;102688.88;6201928;23;20451;-66
2022/03/07 03:53:00;;;;;;;10.90;6.55;;;;;;;2.08;58.86;102685.94;6202110;23;20424;-66
2022/03/07 03:55:29;;;;;;;12.25;7.00;;;;;;;2.11;58.77;102683.56;6201701;23;20039;-66
2022/03/07 03:57:55;;;;;;;8.57;6.40;;;;;;;1.99;59.18;102684.44;6201984;23;20016;-66
2022/03/07 04:00:20;;;;;;;11.70;6.88;;;;;;;1.89;59.05;102681.06;6201363;23;20076;-66
2022/03/07 04:02:47;;;;;;;11.00;7.10;;;;;;;1.76;59.83;102681.81;6202069;23;20098;-67
2022/03/07 04:05:24;;;;;;;12.23;6.57;;;;;;;1.75;59.73;102683.50;6204023;23;20004;-66
2022/03/07 04:07:50;;;;;;;12.68;7.05;;;;;;;1.69;60.27;102684.75;6205544;23;20000;-66
2022/03/07 04:10:15;;;;;;;8.57;6.53;;;;;;;1.62;59.82;102679.84;6200117;23;20020;-65
2022/03/07 04:12:43;;;;;;;11.07;6.93;;;;;;;1.53;60.36;102685.25;6201299;23;20447;-65
2022/03/07 04:15:14;;;;;;;10.98;6.57;;;;;;;1.53;60.98;102689.56;6201176;23;20419;-67
2022/03/07 04:17:41;;;;;;;13.25;7.07;;;;;;;1.60;59.64;102682.34;6204608;23;20004;-66
2022/03/07 04:20:07;;;;;;;12.32;7.25;;;;;;;1.66;60.27;102680.19;6205061;23;20084;-66
2022/03/07 04:22:33;;;;;;;10.10;6.95;;;;;;;1.73;59.94;102672.06;6204213;23;20008;-66
2022/03/07 04:24:58;;;;;;;12.23;6.88;;;;;;;1.79;59.45;102676.81;6204090;23;20012;-66
2022/03/07 04:27:29;;;;;;;12.40;6.82;;;;;;;1.79;59.95;102678.53;6203393;23;20419;-66
2022/03/07 04:29:55;;;;;;;10.32;7.18;;;;;;;1.66;59.93;102677.59;6201787;23;20016;-67
2022/03/07 04:32:21;;;;;;;11.68;7.45;;;;;;;1.48;61.27;102678.78;6202883;23;20248;-68
2022/03/07 04:34:47;;;;;;;13.70;7.20;;;;;;;1.45;62.13;102671.63;6203989;23;20027;-66
2022/03/07 04:37:12;;;;;;;13.07;7.10;;;;;;;1.50;61.22;102677.25;6203840;23;20000;-67
2022/03/07 04:39:37;;;;;;;11.55;7.18;;;;;;;1.46;61.15;102670.88;6204075;23;20016;-66
2022/03/07 04:42:03;;;;;;;12.48;7.05;;;;;;;1.36;62.12;102670.94;6203739;23;20100;-66
2022/03/07 04:44:28;;;;;;;12.10;6.72;;;;;;;1.35;61.72;102670.84;6202840;23;20531;-66
2022/03/07 04:46:54;;;;;;;10.75;7.20;;;;;;;1.25;62.59;102657.09;6204266;23;20398;-65
2022/03/07 04:49:19;;;;;;;11.38;7.25;;;;;;;1.33;62.13;102680.22;6205132;23;20439;-66
2022/03/07 04:51:46;;;;;;;13.02;7.45;;;;;;;1.32;62.26;102676.69;6201236;23;20036;-66
2022/03/07 04:54:13;;;;;;;10.93;7.38;;;;;;;1.28;62.50;102676.34;6204590;23;20139;-67
2022/03/07 04:56:40;;;;;;;11.57;7.10;;;;;;;1.22;62.69;102677.69;6204507;23;20123;-66
2022/03/07 04:59:05;;;;;;;11.57;7.22;;;;;;;1.19;62.43;102674.84;6203939;23;20001;-67
2022/03/07 05:01:31;;;;;;;11.35;7.05;;;;;;;1.14;62.25;102672.69;6203560;23;20070;-67
2022/03/07 05:03:56;;;;;;;12.15;7.40;;;;;;;1.11;62.50;102683.75;6201878;23;20001;-66
2022/03/07 05:06:22;;;;;;;12.70;7.57;;;;;;;0.98;62.37;102665.34;6204641;23;20001;-66
2022/03/07 05:08:49;;;;;;;12.63;7.22;;;;;;;1.00;63.54;102676.81;6203780;23;20036;-66
2022/03/07 05:11:16;;;;;;;10.48;7.15;;;;;;;0.95;63.10;102684.25;6204149;23;20107;-65
2022/03/07 05:13:41;;;;;;;12.73;7.28;;;;;;;0.98;64.02;102673.16;6201132;23;20016;-67
2022/03/07 05:16:07;;;;;;;11.82;7.40;;;;;;;1.03;63.35;102678.72;6203819;23;20004;-67
2022/03/07 05:18:33;;;;;;;13.82;7.25;;;;;;;1.09;62.99;102671.41;6203445;23;20015;-66
2022/03/07 05:20:58;;;;;;;13.07;7.70;;;;;;;1.05;63.70;102669.34;6203421;23;20080;-66
2022/03/07 05:23:24;;;;;;;14.25;8.23;;;;;;;1.00;63.71;102675.09;6203924;23;20070;-67
2022/03/07 05:25:49;;;;;;;12.77;8.25;;;;;;;0.93;63.68;102670.19;6202621;23;20451;-68
2022/03/07 05:28:15;;;;;;;13.05;8.30;;;;;;;0.87;64.32;102674.94;6202944;23;20000;-66
2022/03/07 05:30:40;;;;;;;12.02;7.60;;;;;;;0.86;63.90;102675.72;6201818;23;20439;-66
2022/03/07 05:33:06;;;;;;;13.55;8.57;;;;;;;0.80;64.13;102676.91;6203379;23;20013;-66
2022/03/07 05:35:33;;;;;;;11.85;7.95;;;;;;;0.78;64.17;102675.91;6201915;23;20001;-67
2022/03/07 05:37:58;;;;;;;12.68;7.97;;;;;;;0.80;64.66;102675.22;6203647;23;20011;-66
2022/03/07 05:40:24;;;;;;;14.13;7.85;;;;;;;0.81;64.39;102690.03;6203137;23;20075;-66
2022/03/07 05:42:54;;;;;;;12.20;8.10;;;;;;;0.79;64.80;102681.22;6203692;23;20710;-66
2022/03/07 05:45:19;;;;;;;10.73;7.88;;;;;;;0.73;64.91;102688.56;6206297;23;20076;-66
2022/03/07 05:47:44;;;;;;;10.63;7.82;;;;;;;0.74;64.27;102680.84;6202623;23;20115;-66
2022/03/07 05:50:13;;;;;;;13.73;8.20;;;;;;;0.85;64.22;102672.97;6202909;23;20005;-66
2022/03/07 05:52:39;;;;;;;14.98;8.00;;;;;;;1.02;63.76;102684.72;6201020;23;20375;-66
2022/03/07 05:55:06;;;;;;;11.55;7.65;;;;;;;1.15;63.35;102672.78;6204710;23;20084;-66
2022/03/07 05:57:32;;;;;;;11.10;8.18;;;;;;;1.17;63.75;102683.34;6202953;23;20012;-67
2022/03/07 05:59:59;;;;;;;11.48;8.15;;;;;;;1.24;63.12;102688.22;6203920;23;20159;-66
2022/03/07 06:02:24;;;;;;;14.20;8.45;;;;;;;1.22;63.30;102693.31;6204079;23;20287;-67
2022/03/07 06:04:50;;;;;;;11.05;7.35;;;;;;;1.20;63.46;102687.09;6202971;23;20013;-66
2022/03/07 06:07:15;;;;;;;13.88;8.75;;;;;;;1.18;63.25;102699.06;6203685;23;20011;-66
2022/03/07 06:09:40;;;;;;;12.93;8.45;;;;;;;1.12;64.03;102695.09;6202743;23;20016;-66
2022/03/07 06:12:06;;;;;;;14.50;8.65;;;;;;;1.16;63.22;102689.34;6204118;23;20074;-66
2022/03/07 06:14:32;;;;;;;12.38;8.45;;;;;;;1.13;63.47;102696.91;6203722;23;20015;-66
2022/03/07 06:16:57;;;;;;;12.27;8.00;;;;;;;1.09;63.40;102706.16;6204195;23;20029;-66
2022/03/07 06:19:23;;;;;;;13.70;8.05;;;;;;;1.05;63.16;102705.81;6203713;23;20072;-66
2022/03/07 06:21:48;;;;;;;15.07;8.75;;;;;;;0.97;63.44;102700.88;6203948;23;20001;-65
2022/03/07 06:24:14;;;;;;;17.65;10.65;;;;;;;0.92;64.23;102711.72;6203651;23;20075;-66
2022/03/07 06:26:39;;;;;;;17.17;9.23;;;;;;;0.85;63.90;102715.53;6202128;23;20004;-66
2022/03/07 06:29:06;;;;;;;17.38;10.48;;;;;;;0.79;64.08;102708.94;6203299;23;20013;-67
2022/03/07 06:31:32;;;;;;;21.75;11.25;;;;;;;0.85;64.48;102725.03;6202054;23;20011;-65
2022/03/07 06:33:57;;;;;;;19.98;12.85;;;;;;;0.86;65.17;102726.88;6201745;23;20008;-67
2022/03/07 06:36:22;;;;;;;21.70;13.27;;;;;;;0.89;64.81;102729.69;6202831;23;20273;-66
2022/03/07 06:38:48;;;;;;;20.75;14.48;;;;;;;0.87;64.83;102721.78;6201310;23;20005;-65
2022/03/07 06:41:13;;;;;;;23.88;13.15;;;;;;;0.91;64.86;102729.03;6204626;23;20084;-66
2022/03/07 06:43:39;;;;;;;18.98;12.70;;;;;;;0.91;65.05;102734.25;6208004;23;20411;-65
2022/03/07 06:46:05;;;;;;;20.30;12.35;;;;;;;0.82;64.90;102733.50;6206672;23;20084;-66
2022/03/07 06:48:31;;;;;;;20.13;12.98;;;;;;;0.87;65.07;102733.88;6203451;23;20301;-66
2022/03/07 06:50:56;;;;;;;19.08;13.00;;;;;;;0.90;65.39;102734.09;6200597;23;20005;-67
2022/03/07 06:53:21;;;;;;;17.88;12.13;;;;;;;0.91;65.16;102730.75;6202054;23;20004;-65
2022/03/07 06:55:47;;;;;;;17.67;11.07;;;;;;;0.97;65.34;102734.72;6202618;23;20487;-66
2022/03/07 06:58:12;;;;;;;16.27;9.95;;;;;;;1.04;65.22;102738.75;6201709;23;20075;-66
2022/03/07 07:00:38;;;;;;;16.38;10.85;;;;;;;1.21;64.76;102733.16;6201057;23;20298;-66
2022/03/07 07:03:03;;;;;;;14.73;10.18;;;;;;;1.31;63.91;102729.59;6202577;23;20001;-66
2022/03/07 07:05:29;;;;;;;17.80;10.93;;;;;;;1.42;63.70;102728.72;6199229;23;20013;-67
2022/03/07 07:07:55;;;;;;;15.85;10.77;;;;;;;1.53;63.97;102736.47;6201329;23;20032;-66
2022/03/07 07:10:21;;;;;;;16.75;10.55;;;;;;;1.64;64.39;102739.13;6202982;23;20013;-66
2022/03/07 07:13:04;;;;;;;17.08;11.05;;;;;;;1.92;63.55;102733.38;6201130;23;20011;-67
2022/03/07 07:15:30;;;;;;;19.77;11.77;;;;;;;2.07;62.80;102726.75;6201766;23;20327;-67
2022/03/07 07:17:55;;;;;;;15.88;11.20;;;;;;;2.28;62.90;102727.44;6200046;23;20015;-66
2022/03/07 07:20:21;;;;;;;15.38;11.07;;;;;;;2.51;62.86;102736.97;6201582;23;20004;-66
2022/03/07 07:22:46;;;;;;;19.10;12.88;;;;;;;2.86;62.78;102722.97;6200836;23;20079;-67
2022/03/07 07:25:12;;;;;;;14.23;9.48;;;;;;;3.24;60.33;102721.38;6202343;23;20491;-66
2022/03/07 07:27:43;;;;;;;15.60;9.82;;;;;;;3.61;59.39;102721.34;6201355;23;20067;-66
2022/03/07 07:30:14;;;;;;;14.88;9.88;;;;;;;3.88;58.33;102726.63;6200514;23;20207;-66
2022/03/07 07:32:39;;;;;;;16.33;9.77;;;;;;;4.12;57.04;102725.69;6200575;23;20378;-66
2022/03/07 07:35:09;;;;;;;16.35;10.55;;;;;;;4.40;56.70;102717.03;6201581;23;20013;-66
2022/03/07 07:37:34;;;;;;;14.60;9.73;;;;;;;4.53;56.42;102728.41;6201465;23;20036;-67
2022/03/07 07:40:00;;;;;;;13.40;9.43;;;;;;;4.65;55.79;102732.63;6202338;23;20001;-66
2022/03/07 07:42:26;;;;;;;16.05;9.68;;;;;;;4.78;55.83;102720.41;6199474;23;20051;-66
2022/03/07 07:44:51;;;;;;;16.00;10.45;;;;;;;5.01;55.95;102723.59;6199575;23;20139;-66
2022/03/07 07:47:17;;;;;;;13.50;9.15;;;;;;;5.17;54.61;102734.25;6200760;23;20067;-66
2022/03/07 07:49:44;;;;;;;16.70;9.65;;;;;;;5.38;54.05;102733.78;6201198;23;20012;-66
2022/03/07 07:52:09;;;;;;;17.58;10.40;;;;;;;5.60;54.48;102731.66;6201636;23;20032;-68
2022/03/07 07:54:35;;;;;;;15.38;10.07;;;;;;;5.75;53.45;102726.47;6201818;23;20009;-67
2022/03/07 07:57:03;;;;;;;13.82;9.50;;;;;;;5.93;51.63;102740.72;6204115;23;20004;-67
2022/03/07 07:59:29;;;;;;;16.90;10.27;;;;;;;6.04;52.57;102738.75;6201688;23;20004;-67
2022/03/07 08:01:54;;;;;;;15.55;9.60;;;;;;;6.18;51.80;102739.56;6202746;23;20070;-67
2022/03/07 08:04:20;;;;;;;13.85;9.07;;;;;;;6.32;50.67;102737.72;6203658;23;20032;-67
2022/03/07 08:06:45;;;;;;;13.32;9.43;;;;;;;6.43;50.49;102740.16;6201495;23;20266;-68
2022/03/07 08:09:11;;;;;;;14.68;8.88;;;;;;;6.58;50.87;102741.84;6202859;23;20012;-68
2022/03/07 08:11:36;;;;;;;19.25;11.35;;;;;;;6.80;50.68;102736.09;6199818;23;20008;-67
2022/03/07 08:14:01;;;;;;;12.82;8.98;;;;;;;6.87;48.16;102722.50;6202933;23;20000;-67
2022/03/07 08:16:27;;;;;;;11.05;8.27;;;;;;;6.91;47.86;102733.25;6203749;23;20059;-66
2022/03/07 08:18:52;;;;;;;12.27;8.70;;;;;;;7.08;49.41;102742.09;6203822;23;20502;-66
2022/03/07 08:21:21;;;;;;;12.13;8.15;;;;;;;7.29;47.84;102750.25;6204167;23;20470;-66
2022/03/07 08:23:47;;;;;;;11.30;8.15;;;;;;;7.45;47.90;102744.06;6204632;23;20137;-66
2022/03/07 08:26:12;;;;;;;11.45;7.93;;;;;;;7.48;46.08;102734.63;6204964;23;20066;-67
2022/03/07 08:28:37;;;;;;;12.30;7.93;;;;;;;7.49;45.60;102743.41;6203250;23;20039;-66
2022/03/07 08:31:15;;;;;;;13.00;8.60;;;;;;;7.63;46.37;102739.81;6201906;23;20000;-66
2022/03/07 08:33:40;;;;;;;16.10;8.85;;;;;;;7.69;46.45;102748.03;6204774;23;20055;-67
2022/03/07 08:36:06;;;;;;;11.35;7.90;;;;;;;7.96;44.55;102745.03;6203309;23;20009;-66
2022/03/07 08:38:32;;;;;;;10.82;7.97;;;;;;;7.98;43.30;102738.13;6202537;23;20008;-67
2022/03/07 08:40:57;;;;;;;12.02;7.75;;;;;;;8.01;43.49;102748.81;6202433;23;20056;-67
2022/03/07 08:43:24;;;;;;;15.02;7.55;;;;;;;7.99;43.24;102738.19;6199417;23;20167;-66
2022/03/07 08:45:55;;;;;;;11.02;7.50;;;;;;;7.94;44.22;102738.78;6200751;23;20013;-67
2022/03/07 08:48:21;;;;;;;10.17;6.67;;;;;;;7.90;42.46;102750.88;6201169;23;20070;-67
2022/03/07 08:50:48;;;;;;;14.52;7.57;;;;;;;8.07;44.81;102742.97;6200755;23;20738;-67
2022/03/07 08:53:15;;;;;;;14.40;7.75;;;;;;;8.19;43.79;102741.84;6199335;23;20005;-67
2022/03/07 08:55:41;;;;;;;12.50;8.43;;;;;;;8.20;43.04;102719.06;6201218;23;20015;-66
2022/03/07 08:58:06;;;;;;;14.13;8.88;;;;;;;8.44;43.08;102736.13;6200887;23;20083;-67
2022/03/07 09:00:33;;;;;;;15.40;9.52;;;;;;;8.61;42.54;102736.97;6204202;23;20255;-67
2022/03/07 09:02:59;;;;;;;12.75;8.73;;;;;;;8.83;41.57;102728.38;6201995;23;20008;-66
2022/03/07 09:05:28;;;;;;;14.13;8.38;;;;;;;8.91;41.65;102726.09;6202730;23;20008;-66
2022/03/07 09:07:53;;;;;;;12.75;8.48;;;;;;;8.80;40.64;102722.03;6202611;23;20074;-67
2022/03/07 09:10:24;;;;;;;12.07;6.60;;;;;;;8.83;39.86;102723.09;6202436;23;20008;-67
2022/03/07 09:12:49;;;;;;;10.95;6.88;;;;;;;8.95;40.73;102723.69;6200348;23;20075;-67
2022/03/07 09:15:15;;;;;;;9.27;6.72;;;;;;;9.13;38.63;102723.66;6202400;23;20044;-66
2022/03/07 09:17:41;;;;;;;9.68;6.35;;;;;;;9.23;38.57;102720.59;6201665;23;20454;-66
2022/03/07 09:20:08;;;;;;;9.95;6.50;;;;;;;9.00;38.38;102724.81;6203230;23;20075;-67
2022/03/07 09:22:34;;;;;;;9.40;5.97;;;;;;;8.98;38.50;102718.53;6203001;23;20083;-67
2022/03/07 09:25:02;;;;;;;12.02;6.35;;;;;;;9.05;38.75;102718.84;6202651;23;20005;-66
2022/03/07 09:27:29;;;;;;;9.18;6.00;;;;;;;9.30;37.60;102710.34;6202750;23;20015;-67
2022/03/07 09:29:54;;;;;;;9.25;5.68;;;;;;;9.11;36.98;102722.66;6199910;23;20296;-66
2022/03/07 09:32:20;;;;;;;8.25;5.80;;;;;;;8.83;37.32;102716.94;6203006;23;20014;-66
2022/03/07 09:34:45;;;;;;;9.13;6.05;;;;;;;8.70;38.46;102718.06;6201489;23;20280;-66
2022/03/07 09:37:10;;;;;;;11.32;6.15;;;;;;;8.69;38.48;102711.91;6199618;23;20010;-66
2022/03/07 09:39:36;;;;;;;8.57;5.60;;;;;;;8.86;38.12;102714.41;6200303;23;20161;-67
2022/03/07 09:42:03;;;;;;;9.25;5.80;;;;;;;8.94;37.89;102710.41;6201470;23;20199;-67
2022/03/07 09:44:28;;;;;;;9.27;6.05;;;;;;;9.04;38.27;102710.03;6202317;23;20451;-66
2022/03/07 09:46:59;;;;;;;9.70;5.18;;;;;;;9.16;36.89;102710.56;6202394;23;20028;-66
2022/03/07 09:49:25;;;;;;;11.15;5.30;;;;;;;9.34;36.73;102702.63;6202429;23;20031;-66
2022/03/07 09:51:51;;;;;;;7.18;5.22;;;;;;;9.28;36.55;102712.88;6201863;23;20001;-66
2022/03/07 09:54:17;;;;;;;7.25;5.30;;;;;;;9.26;37.87;102709.28;6201455;23;20004;-67
2022/03/07 09:56:42;;;;;;;9.70;5.35;;;;;;;9.51;36.69;102706.94;6204083;23;20011;-67
2022/03/07 09:59:08;;;;;;;7.70;5.15;;;;;;;9.59;35.11;102696.69;6205253;23;20091;-67
2022/03/07 10:01:35;;;;;;;8.00;5.03;;;;;;;9.68;35.89;102701.50;6202840;23;20004;-67
2022/03/07 10:04:09;;;;;;;9.70;5.70;;;;;;;9.79;36.36;102693.19;6202777;23;20054;-68
2022/03/07 10:06:35;;;;;;;9.90;5.50;;;;;;;10.02;35.63;102685.34;6201911;23;20027;-66
2022/03/07 10:09:01;;;;;;;10.15;7.15;;;;;;;10.21;35.10;102687.06;6203612;23;20000;-66
2022/03/07 10:11:28;;;;;;;7.25;5.15;;;;;;;10.30;34.36;102687.47;6202267;23;20387;-67
2022/03/07 10:13:59;;;;;;;7.03;5.22;;;;;;;10.51;34.50;102684.81;6200565;23;20311;-67
2022/03/07 10:16:39;;;;;;;8.45;4.72;;;;;;;10.68;34.70;102688.13;6200918;23;20005;-66
2022/03/07 10:19:22;;;;;;;7.28;4.43;;;;;;;10.87;34.98;102693.28;6201757;23;20035;-67
2022/03/07 10:21:50;;;;;;;6.88;4.47;;;;;;;11.04;33.38;102681.59;6201756;23;20005;-67
2022/03/07 10:24:17;;;;;;;7.25;4.50;;;;;;;10.94;32.95;102681.22;6201770;23;20423;-67
2022/03/07 10:26:43;;;;;;;6.63;4.20;;;;;;;11.34;33.54;102680.06;6201467;23;20004;-67
2022/03/07 10:29:09;;;;;;;6.15;4.35;;;;;;;11.41;32.21;102675.06;6202465;23;20004;-67
2022/03/07 10:31:44;;;;;;;7.38;4.70;;;;;;;11.09;33.04;102686.16;6202544;23;20500;-67
2022/03/07 10:34:11;;;;;;;6.55;4.35;;;;;;;10.95;32.78;102672.41;6201325;23;20032;-67
2022/03/07 10:36:37;;;;;;;9.82;4.30;;;;;;;11.23;32.71;102679.69;6201302;23;20040;-66
2022/03/07 10:39:05;;;;;;;8.35;4.20;;;;;;;11.42;32.10;102673.31;6204284;23;20008;-66
2022/03/07 10:41:44;;;;;;;6.22;4.28;;;;;;;11.65;32.54;102676.78;6205909;23;20000;-67
2022/03/07 10:44:22;;;;;;;5.35;4.10;;;;;;;11.71;31.27;102666.41;6207373;23;20321;-67
2022/03/07 10:46:48;;;;;;;8.30;4.18;;;;;;;11.50;31.46;102648.91;6212955;23;20008;-67
2022/03/07 10:49:17;;;;;;;5.63;4.03;;;;;;;11.21;32.53;102653.13;6204490;23;20397;-68
2022/03/07 10:51:55;;;;;;;6.22;4.03;;;;;;;11.29;32.22;102643.75;6201484;23;20291;-67
2022/03/07 10:54:22;;;;;;;6.25;4.20;;;;;;;11.08;32.25;102642.94;6202510;23;20011;-68
2022/03/07 10:56:52;;;;;;;6.10;4.38;;;;;;;11.00;32.38;102637.34;6203789;23;20056;-67
2022/03/07 10:59:35;;;;;;;6.63;4.60;;;;;;;11.09;32.35;102634.19;6202582;23;20409;-67
2022/03/07 11:02:11;;;;;;;8.40;4.68;;;;;;;11.00;32.24;102633.81;6200881;23;20004;-68
2022/03/07 11:04:38;;;;;;;6.28;4.40;;;;;;;11.30;32.53;102631.41;6199293;23;20650;-67
2022/03/07 11:07:05;;;;;;;8.70;4.57;;;;;;;11.22;32.49;102620.56;6202532;23;20251;-67
2022/03/07 11:09:30;;;;;;;8.18;4.18;;;;;;;11.12;32.14;102622.81;6203369;23;20079;-67
2022/03/07 11:11:56;;;;;;;7.93;4.40;;;;;;;11.08;32.46;102619.13;6203077;23;20382;-67
2022/03/07 11:14:24;;;;;;;6.13;4.50;;;;;;;11.09;32.67;102614.75;6200763;23;20032;-67
2022/03/07 11:16:56;;;;;;;6.47;4.20;;;;;;;11.22;32.87;102614.34;6201130;23;20014;-67
2022/03/07 11:19:25;;;;;;;8.90;4.80;;;;;;;11.42;32.43;102602.72;6201329;23;20011;-67
2022/03/07 11:21:52;;;;;;;6.50;4.65;;;;;;;11.67;32.72;102604.50;6202082;23;20528;-67
2022/03/07 11:24:26;;;;;;;6.15;4.28;;;;;;;11.73;31.92;102609.09;6204093;23;20248;-67